Pedro De Toledo, Brazil
Current Conditions -  °F | °C
As of 11:00 AM on Friday 24 Oct 2014 (Local Time) from SBSP Reporting Station
Clear Clear  
Wind Chill: 77°   Ceiling: Unl
Heat Index: 79°   Visibility: 6mi
Dew Point: 59°   Wind: 2mph
Humidity: 54%   Direction: 120°ESE
Pressure: 30.09"   Gusts: NA
Location:  24.28°S, 47.23°W
Report Text: SBSP 241300Z 12002KT CAVOK 25/15 Q1019
Loading
Personal Weather Stations






























Interactive Weather Map
Tropical Storm Tracking
New forecast layout! Learn more

10-Day Weather Forecast

Advertisements
Track Severe Weather on mobile